Time;durP1;ratioP1;P1;durP2;ratioP2;P2;SDS_P1;SDS_P2;PMS_P1;PMS_P2;Temp;Humidity;BMP_temperature;BMP_pressure;BME280_temperature;BME280_humidity;BME280_pressure;Samples;Min_cycle;Max_cycle;Signal;HPM_P1;HPM_P2
2022/05/24 00:00:10;;;;;;;3.10;2.10;;;16.90;99.90;;;;;;5052568;28;20487;-72
2022/05/24 00:02:37;;;;;;;3.00;1.80;;;17.00;99.90;;;;;;5052952;28;20485;-72
2022/05/24 00:05:04;;;;;;;2.97;2.10;;;17.00;99.90;;;;;;5052878;28;20807;-72
2022/05/24 00:07:31;;;;;;;2.90;1.97;;;17.00;99.90;;;;;;5052998;28;20471;-72
2022/05/24 00:09:58;;;;;;;2.37;1.50;;;17.00;99.90;;;;;;5052365;28;20466;-71
2022/05/24 00:12:25;;;;;;;1.33;1.23;;;17.00;99.90;;;;;;5052594;28;20498;-72
2022/05/24 00:17:37;;;;;;;1.40;1.10;;;17.00;99.90;;;;;;5052840;28;20443;-71
2022/05/24 00:20:05;;;;;;;1.20;1.10;;;16.90;99.90;;;;;;5052136;28;20474;-71
2022/05/24 00:22:32;;;;;;;3.03;1.47;;;16.90;99.90;;;;;;5052756;28;20479;-71
2022/05/24 00:25:01;;;;;;;1.30;1.20;;;16.90;99.90;;;;;;5051783;28;20459;-71
2022/05/24 00:27:27;;;;;;;2.67;1.50;;;16.90;99.90;;;;;;5052728;28;20459;-71
2022/05/24 00:29:54;;;;;;;1.33;1.17;;;16.80;99.90;;;;;;5051976;28;20459;-71
2022/05/24 00:32:21;;;;;;;1.00;0.90;;;16.80;99.90;;;;;;5052403;28;20491;-71
2022/05/24 00:34:49;;;;;;;2.90;1.00;;;16.70;99.90;;;;;;5052442;28;20459;-71
2022/05/24 00:37:18;;;;;;;1.40;0.90;;;16.70;99.90;;;;;;5052549;28;20816;-71
2022/05/24 00:39:44;;;;;;;1.30;1.07;;;16.70;99.90;;;;;;5051888;28;20465;-72
2022/05/24 00:42:16;;;;;;;1.00;0.90;;;16.60;99.90;;;;;;5052234;28;20502;-72
2022/05/24 00:44:47;;;;;;;1.50;0.97;;;16.60;99.90;;;;;;5052426;28;20459;-72
2022/05/24 00:47:22;;;;;;;1.10;1.00;;;16.50;99.90;;;;;;5052131;28;20467;-71
2022/05/24 00:49:56;;;;;;;2.43;1.10;;;16.50;99.90;;;;;;5051641;28;20459;-72
2022/05/24 00:52:28;;;;;;;1.93;1.30;;;16.50;99.90;;;;;;5052274;28;20491;-72
2022/05/24 00:54:55;;;;;;;1.00;0.87;;;16.50;99.90;;;;;;5051948;28;20468;-71
2022/05/24 00:57:28;;;;;;;1.40;1.10;;;16.50;99.90;;;;;;5052304;28;20463;-71
2022/05/24 01:00:00;;;;;;;1.30;1.20;;;16.40;99.90;;;;;;5051903;28;20471;-72
2022/05/24 01:02:27;;;;;;;1.00;0.90;;;16.40;99.90;;;;;;5052086;28;20846;-72
2022/05/24 01:04:57;;;;;;;1.00;0.87;;;16.40;99.90;;;;;;5051697;28;20474;-72
2022/05/24 01:07:23;;;;;;;2.33;1.20;;;16.40;99.90;;;;;;5052271;28;20465;-72
2022/05/24 01:12:26;;;;;;;1.40;1.13;;;16.30;99.90;;;;;;5124610;22;20515;-71
2022/05/24 01:14:55;;;;;;;2.03;1.00;;;16.30;99.90;;;;;;5068769;28;20465;-73
2022/05/24 01:17:22;;;;;;;1.87;0.93;;;16.30;99.90;;;;;;5071672;28;20460;-72
2022/05/24 01:19:50;;;;;;;1.23;1.00;;;16.30;99.90;;;;;;5070890;28;20808;-72
2022/05/24 01:22:45;;;;;;;2.03;1.13;;;16.30;99.90;;;;;;5071404;28;20815;-72
2022/05/24 01:25:20;;;;;;;1.50;1.13;;;16.20;99.90;;;;;;5071326;28;20534;-73
2022/05/24 01:27:48;;;;;;;1.30;1.10;;;16.20;99.90;;;;;;5071393;28;20469;-72
2022/05/24 01:30:15;;;;;;;1.10;1.00;;;16.20;99.90;;;;;;5070831;28;20466;-72
2022/05/24 01:38:16;;;;;;;1.20;1.10;;;16.20;99.90;;;;;;5070926;28;20462;-72
2022/05/24 01:40:43;;;;;;;1.27;1.00;;;16.20;99.90;;;;;;5071317;28;20490;-72
2022/05/24 01:43:11;;;;;;;2.07;1.20;;;16.10;99.90;;;;;;5070928;28;20540;-71
2022/05/24 01:45:44;;;;;;;1.20;0.90;;;16.10;99.90;;;;;;5071061;28;20481;-70
2022/05/24 01:48:15;;;;;;;1.87;1.20;;;16.10;99.90;;;;;;5070554;28;20465;-72
2022/05/24 01:50:44;;;;;;;1.40;1.30;;;16.10;99.90;;;;;;5071167;28;20872;-73
2022/05/24 01:53:16;;;;;;;1.00;0.90;;;16.10;99.90;;;;;;5070736;28;20846;-71
2022/05/24 01:55:46;;;;;;;1.90;1.20;;;16.10;99.90;;;;;;5071103;28;20812;-72
2022/05/24 01:58:18;;;;;;;7.80;1.20;;;16.10;99.90;;;;;;5070386;28;20490;-72
2022/05/24 02:00:49;;;;;;;1.50;1.00;;;16.00;99.90;;;;;;5070953;28;20463;-72
2022/05/24 02:03:16;;;;;;;1.20;1.03;;;16.00;99.90;;;;;;5071296;28;20839;-72
2022/05/24 02:05:43;;;;;;;1.73;1.33;;;16.00;99.90;;;;;;5070966;28;20459;-72
2022/05/24 02:08:11;;;;;;;1.17;1.07;;;16.00;99.90;;;;;;5070143;28;20462;-72
2022/05/24 02:10:42;;;;;;;1.20;1.10;;;15.90;99.90;;;;;;5070834;28;20477;-72
2022/05/24 02:13:11;;;;;;;1.80;1.03;;;15.90;99.90;;;;;;5070591;28;20474;-72
2022/05/24 02:15:43;;;;;;;3.43;1.37;;;15.90;99.90;;;;;;5070967;28;20839;-72
2022/05/24 02:18:14;;;;;;;2.07;1.00;;;15.80;99.90;;;;;;5070221;28;20466;-71
2022/05/24 02:20:42;;;;;;;1.20;0.90;;;15.70;99.90;;;;;;5070981;28;20461;-72
2022/05/24 02:23:11;;;;;;;1.33;1.23;;;15.70;99.90;;;;;;5070638;28;20562;-72
2022/05/24 02:25:44;;;;;;;1.13;1.03;;;15.60;99.90;;;;;;5070869;28;20841;-73
2022/05/24 02:28:11;;;;;;;1.20;1.10;;;15.60;99.90;;;;;;5070083;28;20470;-72
2022/05/24 02:30:43;;;;;;;1.30;1.20;;;15.50;99.90;;;;;;5070871;28;20458;-72
2022/05/24 02:33:09;;;;;;;1.70;1.60;;;15.50;99.90;;;;;;5070361;28;20905;-72
2022/05/24 02:35:36;;;;;;;1.73;1.63;;;15.50;99.90;;;;;;5070797;28;20837;-72
2022/05/24 02:38:04;;;;;;;3.03;1.10;;;15.50;99.90;;;;;;5069845;28;20459;-73
2022/05/24 02:43:14;;;;;;;1.77;1.20;;;15.40;99.90;;;;;;5070443;28;20453;-73
2022/05/24 02:45:42;;;;;;;1.20;1.10;;;15.40;99.90;;;;;;5070980;28;20458;-73
2022/05/24 02:48:10;;;;;;;1.57;1.23;;;15.30;99.90;;;;;;5073397;28;20454;-72
2022/05/24 02:50:37;;;;;;;1.70;1.10;;;15.30;99.90;;;;;;5074680;28;20467;-72
2022/05/24 02:53:04;;;;;;;1.20;1.10;;;15.30;99.90;;;;;;5074118;28;20497;-73
2022/05/24 02:55:31;;;;;;;1.30;1.20;;;15.30;99.90;;;;;;5074471;28;20462;-72
2022/05/24 02:57:58;;;;;;;2.97;1.10;;;15.30;99.90;;;;;;5073971;28;20489;-72
2022/05/24 03:00:26;;;;;;;1.87;1.63;;;15.20;99.90;;;;;;5074383;28;20462;-73
2022/05/24 03:02:54;;;;;;;1.23;1.00;;;15.20;99.90;;;;;;5074100;28;20485;-72
2022/05/24 03:05:22;;;;;;;1.90;1.23;;;15.10;99.90;;;;;;5074379;28;20459;-72
2022/05/24 03:10:34;;;;;;;2.63;1.40;;;15.10;99.90;;;;;;5074100;28;20437;-73
2022/05/24 03:15:46;;;;;;;1.43;1.33;;;15.10;99.90;;;;;;5074091;28;20450;-73
2022/05/24 03:18:16;;;;;;;2.70;1.40;;;15.10;99.90;;;;;;5073259;28;20469;-72
2022/05/24 03:20:44;;;;;;;1.13;1.03;;;15.10;99.90;;;;;;5073914;28;20488;-72
2022/05/24 03:23:12;;;;;;;1.20;1.10;;;15.10;99.90;;;;;;5073836;28;20510;-73
2022/05/24 03:25:40;;;;;;;1.00;0.90;;;15.10;99.90;;;;;;5073772;28;20466;-73
2022/05/24 03:28:08;;;;;;;1.30;1.17;;;15.10;99.90;;;;;;5073170;28;20458;-72
2022/05/24 03:30:39;;;;;;;1.93;1.23;;;15.10;99.90;;;;;;5073614;28;20458;-72
2022/05/24 03:33:06;;;;;;;1.37;1.10;;;15.10;99.90;;;;;;5073311;28;20497;-71
2022/05/24 03:35:34;;;;;;;1.10;1.00;;;15.10;99.90;;;;;;5062707;28;20826;-72
2022/05/24 03:38:01;;;;;;;1.47;1.30;;;15.10;99.90;;;;;;5054920;28;20462;-72
2022/05/24 03:40:28;;;;;;;3.10;1.30;;;15.10;99.90;;;;;;5059423;28;20486;-72
2022/05/24 03:42:54;;;;;;;1.37;1.23;;;15.10;99.90;;;;;;5067103;28;20475;-72
2022/05/24 03:45:22;;;;;;;3.20;1.40;;;15.10;99.90;;;;;;5061204;28;20455;-72
2022/05/24 03:47:49;;;;;;;2.17;1.20;;;15.10;99.90;;;;;;5062171;28;20463;-72
2022/05/24 03:50:16;;;;;;;3.03;1.27;;;15.10;99.90;;;;;;5061955;28;20459;-72
2022/05/24 03:52:44;;;;;;;1.77;1.37;;;15.10;99.90;;;;;;5060703;28;20487;-72
2022/05/24 03:55:11;;;;;;;1.50;1.40;;;15.10;99.90;;;;;;5063278;28;21241;-74
2022/05/24 04:00:24;;;;;;;1.33;1.20;;;15.10;99.90;;;;;;5061743;28;20439;-74
2022/05/24 04:02:50;;;;;;;2.20;1.30;;;15.00;99.90;;;;;;5060846;28;20475;-74
2022/05/24 04:05:17;;;;;;;1.93;1.17;;;15.10;99.90;;;;;;5059949;28;20460;-74
2022/05/24 04:07:45;;;;;;;2.70;1.30;;;15.10;99.90;;;;;;5060193;28;20464;-73
2022/05/24 04:10:14;;;;;;;1.50;1.30;;;15.10;99.90;;;;;;5061494;28;20465;-73
2022/05/24 04:12:40;;;;;;;1.10;1.00;;;15.00;99.90;;;;;;5061146;28;20490;-72
2022/05/24 04:15:08;;;;;;;1.50;1.40;;;15.00;99.90;;;;;;5062336;28;20458;-74
2022/05/24 04:17:35;;;;;;;2.00;1.37;;;15.00;99.90;;;;;;5063506;28;20473;-72
2022/05/24 04:20:02;;;;;;;1.27;1.17;;;15.00;99.90;;;;;;5059599;28;20464;-73
2022/05/24 04:22:29;;;;;;;1.70;1.30;;;15.00;99.90;;;;;;5056261;28;20476;-73
2022/05/24 04:24:57;;;;;;;1.50;1.33;;;15.00;99.90;;;;;;5059968;28;20466;-73
2022/05/24 04:27:24;;;;;;;1.83;1.03;;;15.00;99.90;;;;;;5067590;28;20459;-73
2022/05/24 04:29:53;;;;;;;1.30;1.20;;;15.00;99.90;;;;;;5051069;28;20494;-73
2022/05/24 04:32:20;;;;;;;1.60;1.30;;;15.00;99.90;;;;;;5050516;28;20491;-72
2022/05/24 04:34:47;;;;;;;1.83;1.23;;;15.00;99.90;;;;;;5051765;28;20463;-72
2022/05/24 04:37:14;;;;;;;1.80;1.30;;;15.10;99.90;;;;;;5051817;28;20464;-71
2022/05/24 04:39:40;;;;;;;1.67;1.57;;;15.10;99.90;;;;;;5051256;28;20464;-73
2022/05/24 04:42:21;;;;;;;7.97;2.03;;;15.10;99.90;;;;;;5051405;28;20506;-73
2022/05/24 04:44:51;;;;;;;3.20;1.80;;;15.10;99.90;;;;;;5051621;28;21025;-72
2022/05/24 04:47:19;;;;;;;1.60;1.50;;;15.10;99.90;;;;;;5052530;28;20466;-72
2022/05/24 04:49:50;;;;;;;1.30;1.20;;;15.10;99.90;;;;;;5051938;28;20463;-72
2022/05/24 04:52:18;;;;;;;1.67;1.57;;;15.20;99.90;;;;;;5052163;28;20907;-72
2022/05/24 04:54:45;;;;;;;2.27;1.30;;;15.10;99.90;;;;;;5052193;28;20555;-72
2022/05/24 04:57:14;;;;;;;1.50;1.40;;;15.10;99.90;;;;;;5051910;28;20888;-73
2022/05/24 04:59:41;;;;;;;1.50;1.40;;;15.10;99.90;;;;;;5051589;28;20946;-73
2022/05/24 05:02:08;;;;;;;1.70;1.60;;;15.10;99.90;;;;;;5051688;28;20487;-71
2022/05/24 05:04:35;;;;;;;2.07;1.50;;;15.20;99.90;;;;;;5052004;28;20480;-73
2022/05/24 05:07:03;;;;;;;2.30;2.10;;;15.10;99.90;;;;;;5051808;28;20478;-72
2022/05/24 05:09:34;;;;;;;2.23;1.40;;;15.20;99.90;;;;;;5051127;28;20470;-72
2022/05/24 05:14:30;;;;;;;1.97;1.63;;;15.30;99.90;;;;;;5069605;28;20896;-73
2022/05/24 05:16:57;;;;;;;2.20;1.33;;;15.40;99.90;;;;;;5052667;28;20962;-73
2022/05/24 05:19:24;;;;;;;1.60;1.50;;;15.40;99.90;;;;;;5050828;28;20471;-73
2022/05/24 05:21:50;;;;;;;2.20;1.50;;;15.40;99.90;;;;;;5048074;28;20476;-73
2022/05/24 05:24:17;;;;;;;2.83;1.77;;;15.50;99.90;;;;;;5031523;28;20463;-73
2022/05/24 05:26:44;;;;;;;1.80;1.70;;;15.50;99.90;;;;;;5031715;28;20880;-73
2022/05/24 05:29:11;;;;;;;1.97;1.77;;;15.60;99.90;;;;;;5031040;28;20457;-73
2022/05/24 05:31:38;;;;;;;2.90;2.23;;;15.60;99.90;;;;;;5031666;28;20460;-73
2022/05/24 05:34:05;;;;;;;1.90;1.70;;;15.60;99.90;;;;;;5031401;28;20484;-73
2022/05/24 05:36:35;;;;;;;1.93;1.70;;;15.70;99.90;;;;;;5031384;28;20467;-73
2022/05/24 05:39:01;;;;;;;3.60;1.90;;;15.80;99.90;;;;;;5030871;28;20487;-73
2022/05/24 05:41:30;;;;;;;2.73;1.53;;;15.80;99.90;;;;;;5031327;28;20465;-73
2022/05/24 05:43:57;;;;;;;2.03;1.83;;;15.90;99.90;;;;;;5031553;28;20543;-72
2022/05/24 05:46:24;;;;;;;2.30;1.90;;;16.00;99.90;;;;;;5031257;28;20460;-72
2022/05/24 05:48:52;;;;;;;2.57;1.63;;;16.10;99.90;;;;;;5030890;28;20465;-72
2022/05/24 05:51:20;;;;;;;1.50;1.40;;;16.10;99.90;;;;;;5031114;28;20862;-72
2022/05/24 05:53:47;;;;;;;2.20;1.90;;;16.20;99.90;;;;;;5031344;28;20998;-72
2022/05/24 05:56:16;;;;;;;3.57;1.97;;;16.30;99.90;;;;;;5031033;28;20464;-72
2022/05/24 05:58:43;;;;;;;2.00;1.80;;;16.30;99.90;;;;;;5030691;28;20471;-72
2022/05/24 06:01:18;;;;;;;1.80;1.60;;;16.40;99.90;;;;;;5031284;28;20460;-72
2022/05/24 06:03:45;;;;;;;1.90;1.70;;;16.40;99.90;;;;;;5031097;28;20482;-72
2022/05/24 06:06:17;;;;;;;5.53;1.93;;;16.50;99.90;;;;;;5030903;28;20464;-72
2022/05/24 06:08:43;;;;;;;4.60;1.60;;;16.50;99.90;;;;;;5030689;28;20514;-72
2022/05/24 06:11:10;;;;;;;1.90;1.70;;;16.60;99.90;;;;;;5030883;28;20468;-72
2022/05/24 06:13:37;;;;;;;1.93;1.70;;;16.70;99.90;;;;;;5056948;28;20490;-72
2022/05/24 06:16:04;;;;;;;2.77;1.80;;;16.80;99.90;;;;;;5071215;28;20466;-72
2022/05/24 06:18:30;;;;;;;2.97;1.90;;;16.80;99.90;;;;;;5070175;28;20463;-72
2022/05/24 06:20:57;;;;;;;3.00;1.67;;;16.80;99.90;;;;;;5070312;28;20482;-72
2022/05/24 06:23:25;;;;;;;1.77;1.67;;;16.80;99.90;;;;;;5070335;28;20482;-72
2022/05/24 06:25:52;;;;;;;1.80;1.60;;;16.90;99.90;;;;;;5071031;28;20458;-72
2022/05/24 06:28:19;;;;;;;2.50;1.90;;;16.90;99.90;;;;;;5069898;28;20462;-72
2022/05/24 06:30:46;;;;;;;1.80;1.63;;;17.00;99.90;;;;;;5070631;28;20454;-72
2022/05/24 06:33:13;;;;;;;2.80;1.77;;;17.00;99.90;;;;;;5070384;28;20512;-72
2022/05/24 06:35:41;;;;;;;2.20;1.53;;;17.10;99.90;;;;;;5070853;28;20455;-72
2022/05/24 06:38:08;;;;;;;3.47;1.63;;;17.10;99.90;;;;;;5070315;28;20461;-73
2022/05/24 06:40:37;;;;;;;1.90;1.70;;;17.10;99.90;;;;;;5070461;28;20557;-72
2022/05/24 06:43:04;;;;;;;4.23;1.70;;;17.10;99.90;;;;;;5070460;28;20997;-72
2022/05/24 06:45:31;;;;;;;2.80;1.40;;;17.10;99.90;;;;;;5070529;28;20470;-72
2022/05/24 06:47:58;;;;;;;2.50;1.67;;;17.20;99.90;;;;;;5070396;28;20463;-72
2022/05/24 06:50:25;;;;;;;2.17;1.50;;;17.20;99.90;;;;;;5070384;28;20849;-72
2022/05/24 06:52:54;;;;;;;2.67;1.97;;;17.30;99.90;;;;;;5070426;28;20475;-73
2022/05/24 06:55:21;;;;;;;2.60;1.57;;;17.30;99.90;;;;;;5070374;28;20458;-73
2022/05/24 06:57:50;;;;;;;1.77;1.63;;;17.20;99.90;;;;;;5070477;28;20497;-73
2022/05/24 07:03:05;;;;;;;1.80;1.50;;;17.20;99.90;;;;;;5070516;28;20458;-72
2022/05/24 07:05:32;;;;;;;1.40;1.20;;;17.20;99.90;;;;;;5070305;28;20466;-72
2022/05/24 07:08:01;;;;;;;2.27;1.80;;;17.10;99.90;;;;;;5069931;28;20462;-72
2022/05/24 07:10:29;;;;;;;3.23;1.23;;;17.00;99.90;;;;;;5070057;28;21063;-73
2022/05/24 07:13:02;;;;;;;2.80;1.10;;;16.80;99.90;;;;;;5070198;28;20829;-73
2022/05/24 07:15:30;;;;;;;2.60;1.23;;;16.30;99.90;;;;;;5070258;28;20458;-72
2022/05/24 07:17:57;;;;;;;2.43;1.40;;;15.70;99.90;;;;;;5070238;28;20451;-73
2022/05/24 07:20:25;;;;;;;2.60;1.00;;;15.20;99.90;;;;;;5069815;28;20957;-73
2022/05/24 07:22:52;;;;;;;2.77;1.10;;;14.80;99.90;;;;;;5069311;28;20504;-73
2022/05/24 07:25:19;;;;;;;1.90;1.20;;;14.40;99.90;;;;;;5070093;28;20945;-73
2022/05/24 07:27:46;;;;;;;3.33;1.07;;;14.30;99.90;;;;;;5070138;28;20458;-73
2022/05/24 07:30:15;;;;;;;2.10;1.00;;;14.20;99.90;;;;;;5069613;28;20450;-73
2022/05/24 07:32:42;;;;;;;1.20;0.90;;;14.20;99.90;;;;;;5070726;28;20478;-73
2022/05/24 07:35:10;;;;;;;1.20;1.00;;;14.10;99.90;;;;;;5073728;28;20482;-73
2022/05/24 07:37:37;;;;;;;1.10;0.80;;;14.10;99.90;;;;;;5073483;28;20493;-73
2022/05/24 07:45:51;;;;;;;1.10;0.90;;;14.20;99.90;;;;;;5073373;28;20449;-73
2022/05/24 07:48:19;;;;;;;1.00;0.90;;;14.20;99.90;;;;;;5072911;28;20458;-74
2022/05/24 07:50:46;;;;;;;2.57;1.10;;;14.20;99.90;;;;;;5073627;28;20502;-73
2022/05/24 07:53:13;;;;;;;2.40;1.00;;;14.20;99.90;;;;;;5073159;28;20493;-73
2022/05/24 07:55:40;;;;;;;3.10;1.10;;;14.20;99.90;;;;;;5073083;28;20458;-73
2022/05/24 07:58:06;;;;;;;2.67;1.20;;;14.30;99.90;;;;;;5072742;28;20826;-73
2022/05/24 08:00:34;;;;;;;1.73;1.30;;;14.50;99.90;;;;;;5072988;28;20838;-73
2022/05/24 08:03:03;;;;;;;1.50;0.83;;;14.70;99.90;;;;;;5073128;28;20892;-73
2022/05/24 08:05:32;;;;;;;1.53;1.07;;;14.80;99.90;;;;;;5072831;28;20465;-73
2022/05/24 08:08:00;;;;;;;2.23;0.90;;;14.90;99.90;;;;;;5072730;28;20493;-73
2022/05/24 08:10:28;;;;;;;2.30;1.10;;;15.00;99.90;;;;;;5072867;28;20459;-73
2022/05/24 08:12:55;;;;;;;2.10;1.10;;;15.00;99.90;;;;;;5072843;28;20494;-73
2022/05/24 08:15:23;;;;;;;3.63;1.10;;;15.10;99.90;;;;;;5072863;28;20451;-73
2022/05/24 08:17:50;;;;;;;1.00;0.87;;;15.30;99.90;;;;;;5072911;28;20877;-73
2022/05/24 08:20:19;;;;;;;3.27;1.00;;;15.40;99.90;;;;;;5072365;28;20524;-73
2022/05/24 08:22:46;;;;;;;2.50;0.90;;;15.60;99.90;;;;;;5072594;28;20479;-73
2022/05/24 08:25:13;;;;;;;1.20;0.90;;;15.60;99.90;;;;;;5072830;28;20455;-73
2022/05/24 08:27:40;;;;;;;1.40;0.90;;;15.70;99.90;;;;;;5072656;28;20465;-73
2022/05/24 08:30:09;;;;;;;1.53;1.17;;;15.80;99.90;;;;;;5072203;28;20837;-73
2022/05/24 08:32:35;;;;;;;1.13;1.00;;;15.90;99.90;;;;;;5072479;28;21027;-73
2022/05/24 08:35:04;;;;;;;1.60;1.03;;;15.90;99.90;;;;;;5072450;28;20483;-73
2022/05/24 08:37:32;;;;;;;1.27;0.83;;;15.90;99.90;;;;;;5072252;28;20469;-73
2022/05/24 08:39:59;;;;;;;1.30;0.80;;;15.90;99.90;;;;;;5072067;28;20466;-73
2022/05/24 08:42:32;;;;;;;3.40;1.13;;;16.10;99.90;;;;;;5072465;28;20478;-73
2022/05/24 08:50:40;;;;;;;2.07;1.00;;;16.20;99.90;;;;;;5072092;28;20442;-73
2022/05/24 08:53:11;;;;;;;1.87;1.07;;;16.10;99.90;;;;;;5072270;28;20828;-73
2022/05/24 08:55:39;;;;;;;1.20;1.00;;;16.00;99.90;;;;;;5071993;28;20467;-73
2022/05/24 08:58:11;;;;;;;5.67;1.47;;;16.10;99.90;;;;;;5071310;28;20808;-73
2022/05/24 09:00:40;;;;;;;2.60;0.80;;;16.10;99.90;;;;;;5071929;28;20465;-73
2022/05/24 09:03:09;;;;;;;1.90;1.53;;;16.30;99.90;;;;;;5072022;28;20462;-73
2022/05/24 09:05:39;;;;;;;3.63;0.90;;;16.50;99.90;;;;;;5071732;28;20459;-73
2022/05/24 09:08:20;;;;;;;1.00;0.80;;;16.60;99.90;;;;;;5071695;28;20462;-72
2022/05/24 09:10:51;;;;;;;1.60;0.80;;;16.60;99.90;;;;;;5071867;28;20462;-73
2022/05/24 09:13:52;;;;;;;2.10;1.10;;;16.60;99.90;;;;;;5071396;28;20493;-73
2022/05/24 09:16:18;;;;;;;1.60;0.93;;;16.80;99.90;;;;;;5071765;28;20466;-72
2022/05/24 09:18:54;;;;;;;1.23;1.13;;;17.00;99.90;;;;;;5070926;28;20864;-72
2022/05/24 09:21:23;;;;;;;1.57;1.10;;;17.20;99.90;;;;;;5071706;28;20466;-72
2022/05/24 09:23:57;;;;;;;1.03;0.90;;;17.30;99.90;;;;;;5071385;28;20490;-73
2022/05/24 09:26:24;;;;;;;1.00;0.80;;;17.20;99.90;;;;;;5071405;28;20967;-72
2022/05/24 09:28:53;;;;;;;1.10;1.00;;;17.30;99.90;;;;;;5071102;28;20470;-73
2022/05/24 09:31:30;;;;;;;1.20;0.90;;;17.30;99.90;;;;;;5071741;28;20463;-73
2022/05/24 09:33:59;;;;;;;1.30;0.90;;;17.40;99.90;;;;;;5071427;28;20861;-73
2022/05/24 09:36:39;;;;;;;1.53;0.80;;;17.50;99.90;;;;;;5071336;28;20864;-73
2022/05/24 09:39:22;;;;;;;1.13;0.90;;;17.70;99.90;;;;;;5070999;28;20469;-72
2022/05/24 09:41:57;;;;;;;5.50;0.90;;;18.00;99.90;;;;;;5071158;28;20482;-72
2022/05/24 09:44:26;;;;;;;1.40;1.00;;;18.30;99.90;;;;;;5071205;28;20459;-72
2022/05/24 09:46:53;;;;;;;1.00;0.80;;;18.40;99.90;;;;;;5071229;28;20466;-73
2022/05/24 09:49:26;;;;;;;1.23;0.90;;;18.70;99.90;;;;;;5070588;28;20492;-73
2022/05/24 09:51:56;;;;;;;1.80;1.00;;;18.80;99.90;;;;;;5071263;28;20489;-73
2022/05/24 09:54:26;;;;;;;2.10;0.97;;;18.60;99.90;;;;;;5070845;28;20522;-73
2022/05/24 09:57:03;;;;;;;1.20;0.90;;;18.70;99.90;;;;;;5070306;28;20463;-73
2022/05/24 09:59:30;;;;;;;0.90;0.80;;;18.80;99.90;;;;;;5070414;28;20458;-73
2022/05/24 10:01:57;;;;;;;1.37;0.93;;;18.50;99.90;;;;;;5071011;28;20486;-73
2022/05/24 10:04:27;;;;;;;1.37;0.97;;;18.30;99.90;;;;;;5070960;28;20462;-73
2022/05/24 10:06:57;;;;;;;4.47;1.07;;;18.10;99.90;;;;;;5071197;28;20461;-73
2022/05/24 10:09:53;;;;;;;2.40;0.97;;;18.10;99.90;;;;;;5070487;28;20836;-73
2022/05/24 10:12:31;;;;;;;1.33;1.00;;;17.90;99.90;;;;;;5070645;28;20575;-74
2022/05/24 10:15:09;;;;;;;3.10;0.80;;;18.20;99.90;;;;;;5070860;28;20493;-74
2022/05/24 10:17:49;;;;;;;2.50;0.90;;;18.70;99.90;;;;;;5070635;28;20465;-74
2022/05/24 10:20:22;;;;;;;3.53;1.00;;;19.20;99.90;;;;;;5070483;28;20466;-74
2022/05/24 10:22:58;;;;;;;2.10;1.10;;;19.90;99.90;;;;;;5070756;28;20482;-74
2022/05/24 10:25:30;;;;;;;1.90;0.87;;;20.20;99.90;;;;;;5070901;28;20454;-74
2022/05/24 10:28:09;;;;;;;1.57;0.93;;;20.20;98.40;;;;;;5070580;28;20968;-74
2022/05/24 10:30:50;;;;;;;1.30;1.00;;;20.00;97.80;;;;;;5070602;28;20469;-74
2022/05/24 10:39:17;;;;;;;1.60;1.00;;;19.80;97.90;;;;;;5070228;28;20458;-74
2022/05/24 10:41:56;;;;;;;1.00;0.90;;;20.00;99.90;;;;;;5070478;28;20462;-74
2022/05/24 10:44:29;;;;;;;2.80;1.00;;;20.20;99.90;;;;;;5070569;28;20450;-74
2022/05/24 10:47:02;;;;;;;1.20;0.97;;;20.00;98.10;;;;;;5070763;28;20820;-74
2022/05/24 10:49:34;;;;;;;2.33;1.00;;;20.00;99.20;;;;;;5069806;28;20458;-74
2022/05/24 10:52:06;;;;;;;1.20;1.10;;;20.20;99.90;;;;;;5070596;28;20553;-74
2022/05/24 10:54:41;;;;;;;2.80;1.17;;;20.40;99.40;;;;;;5070893;28;20573;-73
2022/05/24 10:57:15;;;;;;;1.13;0.97;;;20.40;98.20;;;;;;5070831;28;20473;-74
2022/05/24 10:59:49;;;;;;;1.90;1.03;;;20.00;98.30;;;;;;5069844;28;20466;-74
2022/05/24 11:02:24;;;;;;;1.23;0.90;;;19.80;99.20;;;;;;5070482;28;20497;-74
2022/05/24 11:04:56;;;;;;;1.83;0.97;;;19.70;99.90;;;;;;5070511;28;20465;-74
2022/05/24 11:07:23;;;;;;;1.00;0.90;;;19.70;98.70;;;;;;5070863;28;20466;-74
2022/05/24 11:10:09;;;;;;;1.97;0.93;;;19.70;98.60;;;;;;5073560;28;20462;-73
2022/05/24 11:15:08;;;;;;;1.10;0.90;;;20.00;97.90;;;;;;5121225;22;20535;-91
2022/05/24 11:17:35;;;;;;;1.10;1.00;;;20.10;98.40;;;;;;5099690;28;20565;-92
2022/05/24 11:20:05;;;;;;;2.23;0.90;;;20.00;98.40;;;;;;5108873;28;20438;-92
2022/05/24 11:22:38;;;;;;;1.57;1.17;;;19.80;98.10;;;;;;5109138;28;20449;-91
2022/05/24 11:25:12;;;;;;;1.43;0.90;;;19.60;96.80;;;;;;5078430;28;20455;-91
2022/05/24 11:27:42;;;;;;;2.00;1.00;;;19.40;97.70;;;;;;5078573;28;20465;-91
2022/05/24 11:30:15;;;;;;;1.10;1.00;;;19.40;98.10;;;;;;5078048;28;20617;-90
2022/05/24 11:32:46;;;;;;;1.30;0.93;;;19.50;98.00;;;;;;5078106;28;20454;-91
2022/05/24 11:35:26;;;;;;;2.70;1.30;;;19.90;99.90;;;;;;5077975;28;20878;-92
2022/05/24 11:37:56;;;;;;;1.50;0.90;;;20.10;97.80;;;;;;5078690;28;20458;-91
2022/05/24 11:40:34;;;;;;;1.30;1.00;;;20.40;98.10;;;;;;5078604;28;20496;-91
2022/05/24 11:43:03;;;;;;;1.60;1.03;;;20.80;99.30;;;;;;5078591;28;20486;-90
2022/05/24 11:46:03;;;;;;;2.70;0.93;;;21.00;98.20;;;;;;5078159;28;20459;-91
2022/05/24 11:48:47;;;;;;;1.30;1.00;;;21.00;98.40;;;;;;5077712;28;20450;-91
2022/05/24 11:51:37;;;;;;;1.40;0.90;;;21.30;99.00;;;;;;5076910;28;20464;-91
2022/05/24 11:54:06;;;;;;;1.93;1.20;;;21.60;97.40;;;;;;5076741;28;20479;-92
2022/05/24 11:56:33;;;;;;;1.93;1.10;;;21.60;97.10;;;;;;5076748;28;20462;-91
2022/05/24 11:59:04;;;;;;;2.03;1.20;;;21.30;96.60;;;;;;5077738;28;20458;-91
2022/05/24 12:01:50;;;;;;;4.60;1.10;;;21.00;99.00;;;;;;5076974;28;20519;-91
2022/05/24 12:10:46;;;;;;;1.17;0.90;;;21.10;97.70;;;;;;5077364;28;20464;-91
2022/05/24 12:13:50;;;;;;;1.30;1.20;;;20.70;97.00;;;;;;5038676;28;1083539;-91
2022/05/24 12:16:37;;;;;;;1.17;1.07;;;20.40;98.00;;;;;;5079726;28;20220;-91
2022/05/24 12:19:08;;;;;;;1.40;1.07;;;20.30;96.80;;;;;;5079736;28;20454;-92
2022/05/24 12:21:44;;;;;;;2.00;1.60;;;20.20;98.60;;;;;;5081856;28;20584;-91
2022/05/24 12:28:01;;;;;;;1.93;0.90;;;20.40;98.70;;;;;;5089815;28;20446;-91
2022/05/24 12:30:47;;;;;;;2.63;1.00;;;20.90;99.70;;;;;;5085812;28;20445;-91
2022/05/24 12:33:28;;;;;;;1.00;0.90;;;21.30;97.30;;;;;;5080470;28;20474;-92
2022/05/24 12:36:26;;;;;;;2.60;1.00;;;21.60;97.00;;;;;;5081223;28;20587;-93
2022/05/24 12:39:00;;;;;;;1.73;1.10;;;21.80;96.50;;;;;;5080726;28;20466;-93
2022/05/24 12:41:33;;;;;;;1.20;1.10;;;21.90;95.00;;;;;;5082915;28;20574;-91
2022/05/24 12:44:03;;;;;;;1.87;1.00;;;21.90;92.90;;;;;;5081246;28;20828;-92
2022/05/24 12:46:33;;;;;;;1.20;1.00;;;21.80;95.70;;;;;;5083309;28;20457;-91
2022/05/24 12:49:05;;;;;;;1.10;0.80;;;21.80;94.50;;;;;;5079708;28;20462;-92
2022/05/24 12:51:33;;;;;;;5.23;1.10;;;21.80;93.30;;;;;;5079782;28;20469;-92
2022/05/24 12:54:20;;;;;;;1.20;0.87;;;21.60;96.10;;;;;;5079681;28;20479;-92
2022/05/24 12:56:55;;;;;;;1.03;0.83;;;21.70;95.90;;;;;;5081325;28;20454;-92
2022/05/24 12:59:34;;;;;;;1.47;1.03;;;22.00;92.30;;;;;;5080607;28;20465;-92
2022/05/24 13:02:17;;;;;;;1.17;0.97;;;22.20;95.20;;;;;;5080781;28;20569;-92
2022/05/24 13:04:45;;;;;;;2.40;0.90;;;22.40;94.60;;;;;;5079799;28;20477;-92
2022/05/24 13:07:35;;;;;;;2.50;1.00;;;22.40;93.20;;;;;;5080958;28;20459;-92
2022/05/24 13:10:03;;;;;;;1.70;0.87;;;22.30;92.40;;;;;;5080431;28;20485;-93
2022/05/24 13:12:30;;;;;;;1.10;0.90;;;22.30;94.20;;;;;;5081576;28;20462;-92
2022/05/24 13:15:00;;;;;;;2.07;1.20;;;22.50;92.00;;;;;;5080675;28;20486;-92
2022/05/24 13:17:30;;;;;;;0.90;0.80;;;22.30;90.90;;;;;;5084751;28;20463;-92
2022/05/24 13:20:03;;;;;;;1.10;0.90;;;21.90;90.00;;;;;;5083577;28;20458;-93
2022/05/24 13:22:43;;;;;;;1.20;1.07;;;21.50;91.70;;;;;;5082832;28;20466;-90
2022/05/24 13:25:19;;;;;;;1.73;1.00;;;21.10;93.60;;;;;;5081886;28;20450;-92
2022/05/24 13:27:53;;;;;;;1.60;0.93;;;20.70;94.00;;;;;;5083271;28;20450;-91
2022/05/24 13:33:37;;;;;;;2.63;1.20;;;20.60;96.40;;;;;;5085946;28;20458;-95
2022/05/24 13:36:18;;;;;;;1.27;0.90;;;21.10;95.20;;;;;;5098197;28;20502;-94
2022/05/24 13:38:50;;;;;;;2.37;1.20;;;21.30;94.50;;;;;;5093433;28;20568;-93
2022/05/24 13:41:30;;;;;;;1.07;0.90;;;21.30;94.90;;;;;;5082830;28;20467;-92
2022/05/24 13:44:29;;;;;;;2.63;1.17;;;21.10;95.40;;;;;;5083285;28;20536;-91
2022/05/24 13:47:01;;;;;;;1.87;1.07;;;20.90;96.50;;;;;;5021571;28;20480;-92
2022/05/24 13:49:34;;;;;;;1.87;1.03;;;20.80;96.40;;;;;;5070234;28;20481;-93
2022/05/24 13:52:37;;;;;;;1.20;1.10;;;20.80;95.70;;;;;;5081504;28;20954;-93
2022/05/24 13:55:17;;;;;;;1.40;1.00;;;20.80;97.70;;;;;;5082960;28;20578;-92
2022/05/24 13:57:48;;;;;;;1.80;1.10;;;20.80;98.30;;;;;;5081293;28;20482;-91
2022/05/24 14:00:21;;;;;;;1.90;1.00;;;20.90;97.50;;;;;;5081041;28;20455;-93
2022/05/24 14:03:06;;;;;;;3.03;1.13;;;20.70;95.90;;;;;;5083025;28;20458;-91
2022/05/24 14:05:36;;;;;;;1.07;0.97;;;20.70;97.30;;;;;;5082527;28;20482;-92